createdAt,value
2023-04-18T00:03:03.244Z,102684.25
2023-04-18T00:08:05.715Z,102689.66
2023-04-18T00:13:07.485Z,102677.34
2023-04-18T00:18:09.033Z,102681.75
2023-04-18T00:23:14.041Z,102683.44
2023-04-18T00:28:15.673Z,102687.19
2023-04-18T00:33:17.249Z,102681.84
2023-04-18T00:38:18.740Z,102688.09
2023-04-18T00:43:23.064Z,102686.41
2023-04-18T00:48:24.544Z,102681.19
2023-04-18T00:53:26.017Z,102678.97
2023-04-18T00:58:27.517Z,102689.00
2023-04-18T01:03:29.247Z,102680.63
2023-04-18T01:08:31.272Z,102675.19
2023-04-18T01:13:32.744Z,102680.72
2023-04-18T01:18:35.046Z,102677.06
2023-04-18T01:23:36.522Z,102686.53
2023-04-18T01:28:38.064Z,102676.38
2023-04-18T01:33:39.514Z,102677.94
2023-04-18T01:38:40.967Z,102690.75
2023-04-18T01:43:42.443Z,102686.53
2023-04-18T01:48:43.940Z,102686.63
2023-04-18T01:53:45.490Z,102678.72
2023-04-18T01:58:46.996Z,102683.03
2023-04-18T02:03:48.717Z,102681.56
2023-04-18T02:08:50.315Z,102688.44
2023-04-18T02:13:52.269Z,102687.56
2023-04-18T02:18:53.729Z,102687.44
2023-04-18T02:23:55.180Z,102687.50
2023-04-18T02:28:58.521Z,102685.84
2023-04-18T02:34:00.074Z,102689.31
2023-04-18T02:39:01.561Z,102697.09
2023-04-18T02:44:03.059Z,102691.13
2023-04-18T02:49:04.612Z,102694.66
2023-04-18T02:54:06.057Z,102692.81
2023-04-18T02:59:07.510Z,102693.59
2023-04-18T03:04:08.984Z,102691.06
2023-04-18T03:09:10.484Z,102687.66
2023-04-18T03:14:12.175Z,102694.53
2023-04-18T03:19:13.794Z,102696.19
2023-04-18T03:24:15.389Z,102704.84
2023-04-18T03:29:16.901Z,102705.00
2023-04-18T03:34:18.355Z,102704.91
2023-04-18T03:39:19.816Z,102699.84
2023-04-18T03:44:21.285Z,102710.19
2023-04-18T03:49:22.749Z,102710.22
2023-04-18T03:54:24.210Z,102707.63
2023-04-18T03:59:26.055Z,102715.38
2023-04-18T04:04:27.623Z,102708.44
2023-04-18T04:09:29.146Z,102705.78
2023-04-18T04:14:30.609Z,102709.34
2023-04-18T04:19:32.068Z,102707.63
2023-04-18T04:24:33.704Z,102710.19
2023-04-18T04:29:36.058Z,102713.63
2023-04-18T04:34:37.515Z,102727.44
2023-04-18T04:39:38.989Z,102714.50
2023-04-18T04:44:41.627Z,102717.13
2023-04-18T04:49:43.243Z,102724.84
2023-04-18T04:54:45.791Z,102730.09
2023-04-18T04:59:47.279Z,102731.75
2023-04-18T05:04:49.528Z,102723.16
2023-04-18T05:09:53.114Z,102719.72
2023-04-18T05:14:54.602Z,102730.09
2023-04-18T05:19:56.082Z,102725.72
2023-04-18T05:24:57.546Z,102730.91
2023-04-18T05:29:59.110Z,102730.94
2023-04-18T05:35:00.601Z,102730.88
2023-04-18T05:40:02.069Z,102732.50
2023-04-18T05:45:03.605Z,102731.47
2023-04-18T05:50:05.807Z,102739.25
2023-04-18T05:55:07.469Z,102739.50
2023-04-18T06:00:12.639Z,102745.72
2023-04-18T06:05:14.326Z,102741.34
2023-04-18T06:10:16.105Z,102752.81
2023-04-18T06:15:18.632Z,102755.44
2023-04-18T06:20:20.268Z,102756.28
2023-04-18T06:25:21.753Z,102757.03
2023-04-18T06:30:23.222Z,102756.97
2023-04-18T06:35:26.652Z,102764.81
2023-04-18T06:40:28.408Z,102756.69
2023-04-18T06:45:31.072Z,102771.34
2023-04-18T06:50:32.641Z,102788.88
2023-04-18T06:55:34.103Z,102771.16
2023-04-18T07:00:35.663Z,102783.56
2023-04-18T07:05:37.684Z,102788.72
2023-04-18T07:10:39.172Z,102786.78
2023-04-18T07:15:41.649Z,102785.13
2023-04-18T07:20:43.107Z,102789.66
2023-04-18T07:25:45.144Z,102798.25
2023-04-18T07:30:48.246Z,102804.63
2023-04-18T07:35:50.250Z,102806.16
2023-04-18T07:40:58.594Z,102802.13
2023-04-18T07:46:00.652Z,102814.97
2023-04-18T07:51:02.798Z,102811.44
2023-04-18T07:56:04.397Z,102798.72
2023-04-18T08:01:06.987Z,102804.47
2023-04-18T08:06:08.490Z,102797.34
2023-04-18T08:11:09.966Z,102814.50
2023-04-18T08:16:11.500Z,102807.94
2023-04-18T08:21:13.040Z,102808.84
2023-04-18T08:26:14.675Z,102805.44
2023-04-18T08:31:17.071Z,102807.88
2023-04-18T08:36:18.630Z,102811.81
2023-04-18T08:41:21.639Z,102811.66
2023-04-18T08:46:23.165Z,102805.44
2023-04-18T08:51:24.707Z,102807.25
2023-04-18T08:56:27.236Z,102808.72
2023-04-18T09:01:56.792Z,102820.66
2023-04-18T09:06:58.516Z,102818.41
2023-04-18T09:12:09.190Z,102821.13
2023-04-18T09:17:31.470Z,102817.78
2023-04-18T09:22:57.637Z,102822.38
2023-04-18T09:28:00.876Z,102819.00
2023-04-18T09:33:06.136Z,102816.88
2023-04-18T09:38:07.972Z,102813.59
2023-04-18T09:43:19.412Z,102814.06
2023-04-18T09:48:20.972Z,102811.59
2023-04-18T09:53:22.444Z,102811.09
2023-04-18T09:58:23.906Z,102816.97
2023-04-18T10:03:28.746Z,102808.28
2023-04-18T10:08:30.472Z,102807.06
2023-04-18T10:13:32.012Z,102807.78
2023-04-18T10:18:33.518Z,102810.56
2023-04-18T10:23:36.856Z,102809.41
2023-04-18T10:28:54.524Z,102806.06
2023-04-18T10:39:22.900Z,102815.59
2023-04-18T10:44:24.536Z,102803.41
2023-04-18T10:49:30.238Z,102811.19
2023-04-18T10:54:51.184Z,102801.47
2023-04-18T10:59:52.650Z,102799.06
2023-04-18T11:04:55.390Z,102793.50
2023-04-18T11:09:57.026Z,102791.47
2023-04-18T11:14:59.007Z,102787.22
2023-04-18T11:20:27.085Z,102784.13
2023-04-18T11:25:32.295Z,102784.53
2023-04-18T11:30:40.287Z,102778.16
2023-04-18T11:35:42.675Z,102775.16
2023-04-18T11:40:48.261Z,102764.94
2023-04-18T11:45:56.855Z,102760.59
2023-04-18T11:50:58.365Z,102762.69
2023-04-18T11:55:59.906Z,102760.38
2023-04-18T12:01:24.864Z,102757.13
2023-04-18T12:06:27.599Z,102753.38
2023-04-18T12:11:29.317Z,102755.66
2023-04-18T12:16:30.889Z,102752.19
2023-04-18T12:21:33.006Z,102751.34
2023-04-18T12:26:34.465Z,102749.69
2023-04-18T12:31:35.976Z,102749.75
2023-04-18T12:36:37.447Z,102745.66
2023-04-18T12:41:38.927Z,102751.97
2023-04-18T12:46:40.401Z,102754.94
2023-04-18T12:51:43.501Z,102754.06
2023-04-18T12:56:45.922Z,102748.97
2023-04-18T13:01:47.442Z,102742.94
2023-04-18T13:06:48.997Z,102737.66
2023-04-18T13:11:50.463Z,102720.72
2023-04-18T13:16:51.989Z,102732.16
2023-04-18T13:21:53.520Z,102738.47
2023-04-18T13:26:55.123Z,102731.19
2023-04-18T13:31:56.645Z,102729.66
2023-04-18T13:36:59.116Z,102732.66
2023-04-18T13:42:02.933Z,102731.91
2023-04-18T13:47:05.033Z,102716.75
2023-04-18T13:52:06.498Z,102721.84
2023-04-18T13:57:11.578Z,102720.53
2023-04-18T14:02:13.297Z,102724.97
2023-04-18T14:07:14.913Z,102715.00
2023-04-18T14:12:16.440Z,102694.97
2023-04-18T14:17:17.958Z,102701.88
2023-04-18T14:22:19.413Z,102699.69
2023-04-18T14:27:20.904Z,102712.84
2023-04-18T14:32:22.418Z,102699.22
2023-04-18T14:37:23.910Z,102698.50
2023-04-18T14:42:25.373Z,102703.16
2023-04-18T14:47:31.590Z,102697.72
2023-04-18T14:52:33.126Z,102694.69
2023-04-18T14:57:37.778Z,102706.25
2023-04-18T15:02:39.599Z,102708.81
2023-04-18T15:07:43.126Z,102706.41
2023-04-18T15:12:46.734Z,102692.91
2023-04-18T15:17:48.285Z,102693.75
2023-04-18T15:22:49.781Z,102694.66
2023-04-18T15:27:51.251Z,102688.22
2023-04-18T15:32:53.892Z,102688.19
2023-04-18T15:37:56.551Z,102695.09
2023-04-18T15:42:59.489Z,102688.88
2023-04-18T15:48:01.023Z,102683.09
2023-04-18T15:53:02.542Z,102685.28
2023-04-18T15:58:04.079Z,102686.50
2023-04-18T16:03:09.773Z,102691.97
2023-04-18T16:08:11.458Z,102693.06
2023-04-18T16:13:13.829Z,102688.25
2023-04-18T16:18:15.323Z,102697.91
2023-04-18T16:23:16.792Z,102708.56
2023-04-18T16:28:18.556Z,102704.53
2023-04-18T16:33:24.417Z,102693.28
2023-04-18T16:38:27.292Z,102699.78
2023-04-18T16:43:30.821Z,102705.91
2023-04-18T16:48:32.336Z,102706.84
2023-04-18T16:53:33.828Z,102705.53
2023-04-18T16:58:35.361Z,102692.59
2023-04-18T17:03:37.455Z,102693.47
2023-04-18T17:08:39.052Z,102706.28
2023-04-18T17:13:40.525Z,102693.47
2023-04-18T17:18:42.010Z,102704.09
2023-04-18T17:23:43.480Z,102716.56
2023-04-18T17:28:44.951Z,102705.00
2023-04-18T17:33:46.552Z,102709.97
2023-04-18T17:38:50.744Z,102711.72
2023-04-18T17:43:52.472Z,102715.75
2023-04-18T17:48:53.985Z,102712.88
2023-04-18T17:53:55.450Z,102700.31
2023-04-18T17:58:57.156Z,102713.16
2023-04-18T18:03:58.848Z,102721.88
2023-04-18T18:09:00.473Z,102726.78
2023-04-18T18:14:02.001Z,102720.88
2023-04-18T18:19:03.506Z,102733.66
2023-04-18T18:24:05.220Z,102736.84
2023-04-18T18:29:09.566Z,102733.44
2023-04-18T18:34:11.285Z,102749.03
2023-04-18T18:39:14.507Z,102757.91
2023-04-18T18:44:16.292Z,102758.81
2023-04-18T18:49:17.757Z,102757.94
2023-04-18T18:54:19.300Z,102769.44
2023-04-18T18:59:20.784Z,102776.91
2023-04-18T19:04:22.476Z,102775.66
2023-04-18T19:09:24.025Z,102785.00
2023-04-18T19:14:25.618Z,102792.41
2023-04-18T19:19:27.181Z,102797.25
2023-04-18T19:24:28.661Z,102795.13
2023-04-18T19:29:32.592Z,102782.31
2023-04-18T19:34:34.427Z,102801.34
2023-04-18T19:39:36.292Z,102800.47
2023-04-18T19:44:37.766Z,102794.44
2023-04-18T19:49:39.315Z,102795.03
2023-04-18T19:54:41.237Z,102803.84
2023-04-18T19:59:43.181Z,102791.00
2023-04-18T20:04:44.844Z,102807.59
2023-04-18T20:09:46.414Z,102799.81
2023-04-18T20:14:47.893Z,102800.44
2023-04-18T20:19:49.772Z,102793.69
2023-04-18T20:24:52.672Z,102795.28
2023-04-18T20:29:56.056Z,102803.06
2023-04-18T20:34:59.879Z,102812.78
2023-04-18T20:40:02.834Z,102817.03
2023-04-18T20:45:05.504Z,102809.47
2023-04-18T20:50:07.681Z,102815.75
2023-04-18T20:55:09.209Z,102821.41
2023-04-18T21:00:11.241Z,102832.72
2023-04-18T21:05:12.744Z,102817.16
2023-04-18T21:10:14.234Z,102837.81
2023-04-18T21:15:15.697Z,102828.41
2023-04-18T21:20:17.565Z,102837.69
2023-04-18T21:25:21.103Z,102844.81
2023-04-18T21:30:22.572Z,102837.53
2023-04-18T21:35:24.913Z,102842.00
2023-04-18T21:40:26.829Z,102843.88
2023-04-18T21:45:28.314Z,102842.75
2023-04-18T21:50:29.830Z,102843.53
2023-04-18T21:55:31.292Z,102844.28
2023-04-18T22:00:32.766Z,102843.22
2023-04-18T22:05:36.757Z,102841.75
2023-04-18T22:10:38.761Z,102839.88
2023-04-18T22:15:40.830Z,102839.88
2023-04-18T22:20:42.346Z,102833.19
2023-04-18T22:25:43.831Z,102840.50
2023-04-18T22:30:45.438Z,102842.38
2023-04-18T22:35:47.524Z,102843.00
2023-04-18T22:40:49.006Z,102831.69
2023-04-18T22:45:50.901Z,102834.38
2023-04-18T22:50:52.453Z,102830.91
2023-04-18T22:55:53.963Z,102836.69
2023-04-18T23:00:55.430Z,102826.03
2023-04-18T23:05:56.902Z,102826.75
2023-04-18T23:10:58.368Z,102829.75
2023-04-18T23:15:59.910Z,102833.81
2023-04-18T23:21:01.421Z,102822.41
2023-04-18T23:26:02.977Z,102827.00
2023-04-18T23:31:04.484Z,102828.72
2023-04-18T23:36:06.527Z,102829.59
2023-04-18T23:41:08.014Z,102834.94
2023-04-18T23:46:09.511Z,102830.94
2023-04-18T23:51:11.224Z,102840.13
2023-04-18T23:56:12.678Z,102840.25
